createdAt,value
2023-02-13T00:04:28.381Z,103767.50
2023-02-13T00:09:32.580Z,103764.81
2023-02-13T00:14:36.560Z,103745.53
2023-02-13T00:19:39.922Z,103760.28
2023-02-13T00:24:44.117Z,103748.06
2023-02-13T00:29:46.994Z,103756.63
2023-02-13T00:34:49.856Z,103749.56
2023-02-13T00:39:54.295Z,103745.31
2023-02-13T00:44:58.794Z,103746.81
2023-02-13T00:50:01.613Z,103737.13
2023-02-13T00:55:06.431Z,103731.19
2023-02-13T01:00:10.298Z,103732.00
2023-02-13T01:05:13.296Z,103734.66
2023-02-13T01:10:17.850Z,103727.75
2023-02-13T01:15:20.882Z,103723.44
2023-02-13T01:20:25.640Z,103720.78
2023-02-13T01:25:29.882Z,103728.53
2023-02-13T01:30:34.057Z,103726.75
2023-02-13T01:35:36.889Z,103722.34
2023-02-13T01:40:47.326Z,103711.78
2023-02-13T01:45:52.455Z,103720.63
2023-02-13T01:50:59.888Z,103719.72
2023-02-13T01:56:07.061Z,103723.28
2023-02-13T02:01:10.327Z,103708.16
2023-02-13T02:06:16.264Z,103725.75
2023-02-13T02:11:27.155Z,103717.91
2023-02-13T02:16:30.467Z,103703.78
2023-02-13T02:21:48.889Z,103710.00
2023-02-13T02:27:12.834Z,103705.66
2023-02-13T02:32:24.537Z,103706.69
2023-02-13T02:37:41.133Z,103703.16
2023-02-13T02:42:49.676Z,103695.38
2023-02-13T02:48:13.513Z,103694.28
2023-02-13T02:53:30.155Z,103694.22
2023-02-13T02:58:54.780Z,103690.75
2023-02-13T03:04:17.641Z,103704.63
2023-02-13T03:09:42.360Z,103703.78
2023-02-13T03:14:45.363Z,103695.88
2023-02-13T03:20:16.621Z,103695.72
2023-02-13T03:25:30.291Z,103690.47
2023-02-13T03:30:41.917Z,103696.53
2023-02-13T03:36:08.219Z,103689.41
2023-02-13T03:41:21.530Z,103692.94
2023-02-13T03:46:25.891Z,103693.78
2023-02-13T03:51:32.887Z,103693.84
2023-02-13T03:56:53.804Z,103694.66
2023-02-13T04:02:02.144Z,103691.34
2023-02-13T04:07:08.568Z,103693.00
2023-02-13T04:12:17.005Z,103682.50
2023-02-13T04:17:24.817Z,103684.13
2023-02-13T04:22:29.208Z,103677.94
2023-02-13T04:27:32.057Z,103681.63
2023-02-13T04:32:34.884Z,103685.00
2023-02-13T04:37:39.098Z,103675.59
2023-02-13T04:42:41.937Z,103676.34
2023-02-13T04:47:45.254Z,103672.13
2023-02-13T04:52:51.407Z,103661.78
2023-02-13T04:57:54.546Z,103675.72
2023-02-13T05:03:02.261Z,103668.81
2023-02-13T05:08:06.827Z,103669.84
2023-02-13T05:13:09.740Z,103656.00
2023-02-13T05:18:12.570Z,103656.00
2023-02-13T05:23:26.287Z,103653.34
2023-02-13T05:28:46.468Z,103655.88
2023-02-13T05:33:49.382Z,103657.72
2023-02-13T05:38:53.591Z,103656.06
2023-02-13T05:43:56.440Z,103648.94
2023-02-13T05:48:59.391Z,103663.00
2023-02-13T05:54:03.970Z,103657.75
2023-02-13T05:59:06.973Z,103655.22
2023-02-13T06:04:09.868Z,103658.53
2023-02-13T06:09:14.208Z,103665.56
2023-02-13T06:14:17.094Z,103654.06
2023-02-13T06:19:19.948Z,103656.75
2023-02-13T06:24:24.134Z,103659.41
2023-02-13T06:29:26.930Z,103661.13
2023-02-13T06:34:29.891Z,103658.41
2023-02-13T06:39:34.143Z,103667.94
2023-02-13T06:44:36.994Z,103673.13
2023-02-13T06:49:39.894Z,103675.66
2023-02-13T06:54:48.040Z,103675.72
2023-02-13T06:59:51.237Z,103658.06
2023-02-13T07:04:54.098Z,103670.41
2023-02-13T07:09:58.226Z,103678.31
2023-02-13T07:15:01.115Z,103677.38
2023-02-13T07:20:05.082Z,103685.94
2023-02-13T07:25:09.852Z,103692.94
2023-02-13T07:30:13.325Z,103693.72
2023-02-13T07:35:16.356Z,103694.84
2023-02-13T07:40:20.851Z,103706.88
2023-02-13T07:45:23.817Z,103698.41
2023-02-13T07:50:27.055Z,103705.22
2023-02-13T07:55:32.669Z,103707.22
2023-02-13T08:00:35.552Z,103712.72
2023-02-13T08:05:38.769Z,103717.09
2023-02-13T08:11:00.272Z,103717.34
2023-02-13T08:16:03.149Z,103708.88
2023-02-13T08:21:06.421Z,103710.09
2023-02-13T08:26:11.175Z,103710.19
2023-02-13T08:31:14.546Z,103699.81
2023-02-13T08:36:19.032Z,103715.13
2023-02-13T08:41:23.410Z,103710.19
2023-02-13T08:46:26.399Z,103703.59
2023-02-13T08:56:57.748Z,103696.34
2023-02-13T09:02:00.720Z,103710.56
2023-02-13T09:07:03.667Z,103709.28
2023-02-13T09:12:08.183Z,103697.25
2023-02-13T09:17:11.111Z,103699.91
2023-02-13T09:22:15.862Z,103693.91
2023-02-13T09:27:20.036Z,103702.66
2023-02-13T09:32:23.086Z,103700.03
2023-02-13T09:37:26.022Z,103708.84
2023-02-13T09:42:31.782Z,103704.00
2023-02-13T09:47:37.711Z,103698.94
2023-02-13T09:52:41.312Z,103704.34
2023-02-13T09:57:49.768Z,103707.91
2023-02-13T10:03:15.419Z,103698.38
2023-02-13T10:08:30.409Z,103688.09
2023-02-13T10:13:49.302Z,103699.13
2023-02-13T10:18:55.711Z,103693.25
2023-02-13T10:24:04.038Z,103694.38
2023-02-13T10:29:29.620Z,103694.59
2023-02-13T10:34:36.476Z,103700.25
2023-02-13T10:39:39.256Z,103690.97
2023-02-13T10:44:50.462Z,103697.44
2023-02-13T10:50:04.985Z,103693.72
2023-02-13T10:55:20.541Z,103681.25
2023-02-13T11:00:30.800Z,103675.56
2023-02-13T11:05:37.239Z,103662.94
2023-02-13T11:10:41.347Z,103661.69
2023-02-13T11:15:58.392Z,103656.81
2023-02-13T11:21:04.336Z,103651.78
2023-02-13T11:26:09.931Z,103640.97
2023-02-13T11:31:21.012Z,103637.78
2023-02-13T11:36:27.616Z,103645.44
2023-02-13T11:41:31.452Z,103645.03
2023-02-13T11:46:48.294Z,103646.59
2023-02-13T11:51:53.596Z,103642.69
2023-02-13T11:57:06.254Z,103630.56
2023-02-13T12:02:19.343Z,103624.78
2023-02-13T12:07:25.120Z,103618.91
2023-02-13T12:12:33.286Z,103618.00
2023-02-13T12:17:37.727Z,103612.13
2023-02-13T12:22:49.444Z,103610.53
2023-02-13T12:28:00.743Z,103616.91
2023-02-13T12:33:18.026Z,103597.16
2023-02-13T12:38:32.396Z,103590.53
2023-02-13T12:44:14.593Z,103594.03
2023-02-13T12:49:41.193Z,103587.06
2023-02-13T12:54:52.416Z,103572.66
2023-02-13T13:00:13.037Z,103568.34
2023-02-13T13:05:30.060Z,103565.72
2023-02-13T13:10:46.783Z,103562.91
2023-02-13T13:15:55.344Z,103551.47
2023-02-13T13:21:20.378Z,103548.50
2023-02-13T13:26:32.082Z,103553.63
2023-02-13T13:31:37.081Z,103546.75
2023-02-13T13:36:45.233Z,103528.53
2023-02-13T13:41:54.425Z,103515.19
2023-02-13T13:47:00.690Z,103519.50
2023-02-13T13:52:25.175Z,103514.75
2023-02-13T13:57:28.350Z,103504.75
2023-02-13T14:02:40.892Z,103504.75
2023-02-13T14:07:45.806Z,103502.28
2023-02-13T14:12:50.303Z,103499.34
2023-02-13T14:17:54.882Z,103500.06
2023-02-13T14:23:08.261Z,103493.84
2023-02-13T14:28:22.186Z,103494.47
2023-02-13T14:33:27.990Z,103491.88
2023-02-13T14:38:32.662Z,103494.28
2023-02-13T14:43:39.036Z,103498.41
2023-02-13T14:48:46.195Z,103501.13
2023-02-13T14:53:53.043Z,103484.53
2023-02-13T14:59:00.279Z,103475.97
2023-02-13T15:04:08.685Z,103477.41
2023-02-13T15:09:22.651Z,103476.22
2023-02-13T15:14:31.445Z,103485.66
2023-02-13T15:19:35.992Z,103473.84
2023-02-13T15:24:46.524Z,103480.00
2023-02-13T15:29:57.485Z,103483.22
2023-02-13T15:35:00.814Z,103474.72
2023-02-13T15:40:20.857Z,103484.22
2023-02-13T15:45:24.916Z,103481.34
2023-02-13T15:50:31.192Z,103472.22
2023-02-13T15:55:36.559Z,103485.78
2023-02-13T16:00:42.491Z,103481.88
2023-02-13T16:05:46.772Z,103480.63
2023-02-13T16:10:51.160Z,103483.31
2023-02-13T16:15:54.338Z,103481.72
2023-02-13T16:20:57.711Z,103482.34
2023-02-13T16:26:05.381Z,103485.06
2023-02-13T16:31:08.654Z,103475.59
2023-02-13T16:36:28.921Z,103475.28
2023-02-13T16:41:34.118Z,103475.53
2023-02-13T16:46:37.807Z,103467.19
2023-02-13T16:51:42.579Z,103450.72
2023-02-13T16:56:48.623Z,103445.22
2023-02-13T17:02:04.468Z,103443.41
2023-02-13T17:07:13.509Z,103447.78
2023-02-13T17:12:19.601Z,103444.91
2023-02-13T17:17:23.809Z,103437.91
2023-02-13T17:22:34.227Z,103435.19
2023-02-13T17:27:38.424Z,103439.31
2023-02-13T17:32:41.256Z,103438.25
2023-02-13T17:37:45.498Z,103445.78
2023-02-13T17:42:53.289Z,103449.91
2023-02-13T17:47:59.257Z,103445.66
2023-02-13T17:53:03.556Z,103446.22
2023-02-13T17:58:07.690Z,103460.91
2023-02-13T18:03:12.422Z,103466.56
2023-02-13T18:08:15.443Z,103462.94
2023-02-13T18:13:19.647Z,103467.06
2023-02-13T18:18:22.442Z,103464.28
2023-02-13T18:23:25.288Z,103465.84
2023-02-13T18:28:29.748Z,103458.00
2023-02-13T18:33:32.617Z,103462.19
2023-02-13T18:38:35.516Z,103466.56
2023-02-13T18:43:39.709Z,103463.19
2023-02-13T18:48:42.588Z,103454.25
2023-02-13T18:53:45.623Z,103465.25
2023-02-13T18:58:49.852Z,103465.59
2023-02-13T19:03:53.566Z,103453.56
2023-02-13T19:08:57.067Z,103476.72
2023-02-13T19:14:02.473Z,103467.47
2023-02-13T19:19:07.136Z,103477.00
2023-02-13T19:24:11.987Z,103463.06
2023-02-13T19:29:16.288Z,103466.00
2023-02-13T19:34:19.164Z,103477.91
2023-02-13T19:39:21.975Z,103471.44
2023-02-13T19:44:26.247Z,103465.50
2023-02-13T19:49:29.090Z,103474.88
2023-02-13T19:54:32.174Z,103480.94
2023-02-13T19:59:36.388Z,103485.34
2023-02-13T20:04:39.997Z,103481.81
2023-02-13T20:09:42.923Z,103480.22
2023-02-13T20:14:47.169Z,103483.59
2023-02-13T20:19:51.358Z,103473.88
2023-02-13T20:24:54.104Z,103473.53
2023-02-13T20:30:06.399Z,103481.28
2023-02-13T20:35:10.039Z,103484.97
2023-02-13T20:40:13.866Z,103480.69
2023-02-13T20:45:18.144Z,103465.75
2023-02-13T20:50:21.405Z,103480.34
2023-02-13T20:55:24.220Z,103477.00
2023-02-13T21:00:28.510Z,103478.56
2023-02-13T21:05:31.293Z,103474.16
2023-02-13T21:10:34.191Z,103473.91
2023-02-13T21:15:38.575Z,103470.03
2023-02-13T21:20:41.451Z,103479.44
2023-02-13T21:25:44.341Z,103484.63
2023-02-13T21:30:48.560Z,103488.78
2023-02-13T21:35:51.538Z,103484.50
2023-02-13T21:40:54.305Z,103485.38
2023-02-13T21:46:06.826Z,103481.22
2023-02-13T21:51:11.019Z,103456.28
2023-02-13T21:56:15.584Z,103467.22
2023-02-13T22:01:26.565Z,103465.38
2023-02-13T22:06:31.232Z,103457.97
2023-02-13T22:11:34.685Z,103461.97
2023-02-13T22:16:39.796Z,103461.72
2023-02-13T22:21:42.949Z,103463.88
2023-02-13T22:26:46.463Z,103460.13
2023-02-13T22:31:50.841Z,103462.25
2023-02-13T22:36:53.734Z,103466.25
2023-02-13T22:41:56.784Z,103465.34
2023-02-13T22:47:00.876Z,103463.59
2023-02-13T22:52:03.933Z,103454.69
2023-02-13T22:57:06.799Z,103452.28
2023-02-13T23:02:11.368Z,103448.97
2023-02-13T23:07:15.157Z,103447.25
2023-02-13T23:12:35.323Z,103441.19
2023-02-13T23:17:58.037Z,103433.19
2023-02-13T23:23:01.075Z,103433.13
2023-02-13T23:28:04.889Z,103427.88
2023-02-13T23:33:09.324Z,103427.81
2023-02-13T23:38:12.155Z,103428.00
2023-02-13T23:43:14.907Z,103423.16
2023-02-13T23:48:18.989Z,103436.06
2023-02-13T23:53:21.800Z,103431.84
2023-02-13T23:58:24.615Z,103441.44
